sensor_id;sensor_type;location;lat;lon;timestamp;P1;durP1;ratioP1;P2;durP2;ratioP2
69240;SDS011;56352;55.750;13.198;2023-07-30T00:02:16;7.10;;;4.47;;
69240;SDS011;56352;55.750;13.198;2023-07-30T00:04:43;5.22;;;3.42;;
69240;SDS011;56352;55.750;13.198;2023-07-30T00:07:11;5.70;;;3.97;;
69240;SDS011;56352;55.750;13.198;2023-07-30T00:09:38;8.50;;;3.65;;
69240;SDS011;56352;55.750;13.198;2023-07-30T00:12:06;7.38;;;3.92;;
69240;SDS011;56352;55.750;13.198;2023-07-30T00:14:33;5.18;;;3.42;;
69240;SDS011;56352;55.750;13.198;2023-07-30T00:17:00;5.88;;;3.17;;
69240;SDS011;56352;55.750;13.198;2023-07-30T00:19:27;7.40;;;3.35;;
69240;SDS011;56352;55.750;13.198;2023-07-30T00:21:54;7.13;;;3.20;;
69240;SDS011;56352;55.750;13.198;2023-07-30T00:24:21;8.27;;;3.42;;
69240;SDS011;56352;55.750;13.198;2023-07-30T00:26:47;6.05;;;3.50;;
69240;SDS011;56352;55.750;13.198;2023-07-30T00:29:14;4.45;;;2.90;;
69240;SDS011;56352;55.750;13.198;2023-07-30T00:31:41;6.75;;;3.47;;
69240;SDS011;56352;55.750;13.198;2023-07-30T00:34:08;7.70;;;3.05;;
69240;SDS011;56352;55.750;13.198;2023-07-30T00:36:35;5.57;;;3.10;;
69240;SDS011;56352;55.750;13.198;2023-07-30T00:39:01;5.85;;;3.08;;
69240;SDS011;56352;55.750;13.198;2023-07-30T00:41:28;5.18;;;3.40;;
69240;SDS011;56352;55.750;13.198;2023-07-30T00:43:55;7.18;;;3.38;;
69240;SDS011;56352;55.750;13.198;2023-07-30T00:46:22;9.35;;;3.40;;
69240;SDS011;56352;55.750;13.198;2023-07-30T00:48:49;9.57;;;4.35;;
69240;SDS011;56352;55.750;13.198;2023-07-30T00:51:16;7.47;;;3.58;;
69240;SDS011;56352;55.750;13.198;2023-07-30T00:53:43;9.05;;;3.58;;
69240;SDS011;56352;55.750;13.198;2023-07-30T00:56:11;7.60;;;3.80;;
69240;SDS011;56352;55.750;13.198;2023-07-30T00:58:37;9.80;;;3.58;;
69240;SDS011;56352;55.750;13.198;2023-07-30T01:01:04;8.18;;;3.40;;
69240;SDS011;56352;55.750;13.198;2023-07-30T01:03:31;7.38;;;3.53;;
69240;SDS011;56352;55.750;13.198;2023-07-30T01:05:59;8.68;;;3.67;;
69240;SDS011;56352;55.750;13.198;2023-07-30T01:08:26;5.50;;;4.75;;
69240;SDS011;56352;55.750;13.198;2023-07-30T01:10:53;9.65;;;4.15;;
69240;SDS011;56352;55.750;13.198;2023-07-30T01:13:21;5.53;;;3.30;;
69240;SDS011;56352;55.750;13.198;2023-07-30T01:15:48;8.48;;;3.25;;
69240;SDS011;56352;55.750;13.198;2023-07-30T01:18:15;6.25;;;3.30;;
69240;SDS011;56352;55.750;13.198;2023-07-30T01:20:41;6.72;;;3.45;;
69240;SDS011;56352;55.750;13.198;2023-07-30T01:23:08;11.38;;;3.80;;
69240;SDS011;56352;55.750;13.198;2023-07-30T01:25:35;5.72;;;3.67;;
69240;SDS011;56352;55.750;13.198;2023-07-30T01:28:03;8.60;;;3.80;;
69240;SDS011;56352;55.750;13.198;2023-07-30T01:30:37;8.55;;;3.67;;
69240;SDS011;56352;55.750;13.198;2023-07-30T01:33:07;11.27;;;4.00;;
69240;SDS011;56352;55.750;13.198;2023-07-30T01:35:34;6.70;;;3.60;;
69240;SDS011;56352;55.750;13.198;2023-07-30T01:38:01;7.45;;;3.70;;
69240;SDS011;56352;55.750;13.198;2023-07-30T01:40:30;5.60;;;3.53;;
69240;SDS011;56352;55.750;13.198;2023-07-30T01:42:56;8.48;;;3.88;;
69240;SDS011;56352;55.750;13.198;2023-07-30T01:45:23;8.93;;;3.85;;
69240;SDS011;56352;55.750;13.198;2023-07-30T01:47:50;6.88;;;3.78;;
69240;SDS011;56352;55.750;13.198;2023-07-30T01:50:17;6.53;;;3.58;;
69240;SDS011;56352;55.750;13.198;2023-07-30T01:52:43;7.32;;;3.80;;
69240;SDS011;56352;55.750;13.198;2023-07-30T01:55:10;7.80;;;3.90;;
69240;SDS011;56352;55.750;13.198;2023-07-30T01:57:37;6.32;;;3.58;;
69240;SDS011;56352;55.750;13.198;2023-07-30T02:00:04;7.43;;;3.70;;
69240;SDS011;56352;55.750;13.198;2023-07-30T02:02:34;11.88;;;3.50;;
69240;SDS011;56352;55.750;13.198;2023-07-30T02:05:02;7.28;;;3.17;;
69240;SDS011;56352;55.750;13.198;2023-07-30T02:07:29;6.22;;;3.42;;
69240;SDS011;56352;55.750;13.198;2023-07-30T02:09:56;6.13;;;3.30;;
69240;SDS011;56352;55.750;13.198;2023-07-30T02:12:22;5.63;;;3.40;;
69240;SDS011;56352;55.750;13.198;2023-07-30T02:14:49;5.47;;;2.75;;
69240;SDS011;56352;55.750;13.198;2023-07-30T02:17:16;9.23;;;3.63;;
69240;SDS011;56352;55.750;13.198;2023-07-30T02:19:43;8.95;;;3.65;;
69240;SDS011;56352;55.750;13.198;2023-07-30T02:22:10;7.20;;;2.97;;
69240;SDS011;56352;55.750;13.198;2023-07-30T02:24:36;6.80;;;3.13;;
69240;SDS011;56352;55.750;13.198;2023-07-30T02:27:03;5.45;;;3.00;;
69240;SDS011;56352;55.750;13.198;2023-07-30T02:29:30;7.72;;;3.03;;
69240;SDS011;56352;55.750;13.198;2023-07-30T02:31:57;7.57;;;3.60;;
69240;SDS011;56352;55.750;13.198;2023-07-30T02:34:26;7.82;;;3.25;;
69240;SDS011;56352;55.750;13.198;2023-07-30T02:36:53;8.40;;;3.10;;
69240;SDS011;56352;55.750;13.198;2023-07-30T02:39:19;8.55;;;3.47;;
69240;SDS011;56352;55.750;13.198;2023-07-30T02:41:46;8.43;;;3.22;;
69240;SDS011;56352;55.750;13.198;2023-07-30T02:44:13;5.78;;;2.58;;
69240;SDS011;56352;55.750;13.198;2023-07-30T02:46:40;4.60;;;2.55;;
69240;SDS011;56352;55.750;13.198;2023-07-30T02:49:07;8.50;;;3.08;;
69240;SDS011;56352;55.750;13.198;2023-07-30T02:51:35;5.00;;;2.85;;
69240;SDS011;56352;55.750;13.198;2023-07-30T02:54:05;6.50;;;2.92;;
69240;SDS011;56352;55.750;13.198;2023-07-30T02:56:33;7.40;;;2.65;;
69240;SDS011;56352;55.750;13.198;2023-07-30T02:59:00;7.15;;;2.90;;
69240;SDS011;56352;55.750;13.198;2023-07-30T03:01:27;8.10;;;2.72;;
69240;SDS011;56352;55.750;13.198;2023-07-30T03:03:54;8.00;;;2.90;;
69240;SDS011;56352;55.750;13.198;2023-07-30T03:06:21;4.50;;;3.10;;
69240;SDS011;56352;55.750;13.198;2023-07-30T03:08:48;7.15;;;3.00;;
69240;SDS011;56352;55.750;13.198;2023-07-30T03:11:14;6.03;;;3.08;;
69240;SDS011;56352;55.750;13.198;2023-07-30T03:13:41;5.68;;;3.20;;
69240;SDS011;56352;55.750;13.198;2023-07-30T03:16:08;7.82;;;2.80;;
69240;SDS011;56352;55.750;13.198;2023-07-30T03:18:35;5.18;;;2.80;;
69240;SDS011;56352;55.750;13.198;2023-07-30T03:21:03;5.70;;;2.92;;
69240;SDS011;56352;55.750;13.198;2023-07-30T03:23:30;5.60;;;2.92;;
69240;SDS011;56352;55.750;13.198;2023-07-30T03:25:58;7.57;;;3.15;;
69240;SDS011;56352;55.750;13.198;2023-07-30T03:28:26;7.05;;;3.22;;
69240;SDS011;56352;55.750;13.198;2023-07-30T03:30:53;9.38;;;3.30;;
69240;SDS011;56352;55.750;13.198;2023-07-30T03:33:20;9.07;;;3.42;;
69240;SDS011;56352;55.750;13.198;2023-07-30T03:35:46;8.40;;;3.63;;
69240;SDS011;56352;55.750;13.198;2023-07-30T03:38:13;9.27;;;3.13;;
69240;SDS011;56352;55.750;13.198;2023-07-30T03:40:40;6.38;;;3.17;;
69240;SDS011;56352;55.750;13.198;2023-07-30T03:43:06;8.55;;;3.25;;
69240;SDS011;56352;55.750;13.198;2023-07-30T03:45:33;9.85;;;3.40;;
69240;SDS011;56352;55.750;13.198;2023-07-30T03:48:00;11.25;;;4.07;;
69240;SDS011;56352;55.750;13.198;2023-07-30T03:50:27;7.30;;;3.47;;
69240;SDS011;56352;55.750;13.198;2023-07-30T03:52:53;8.88;;;3.53;;
69240;SDS011;56352;55.750;13.198;2023-07-30T03:55:20;6.00;;;3.55;;
69240;SDS011;56352;55.750;13.198;2023-07-30T03:57:47;9.20;;;3.70;;
69240;SDS011;56352;55.750;13.198;2023-07-30T04:00:14;7.78;;;4.10;;
69240;SDS011;56352;55.750;13.198;2023-07-30T04:02:40;7.00;;;3.53;;
69240;SDS011;56352;55.750;13.198;2023-07-30T04:05:07;5.68;;;3.75;;
69240;SDS011;56352;55.750;13.198;2023-07-30T04:07:34;7.22;;;3.60;;
69240;SDS011;56352;55.750;13.198;2023-07-30T04:10:03;8.27;;;3.33;;
69240;SDS011;56352;55.750;13.198;2023-07-30T04:12:30;9.38;;;4.10;;
69240;SDS011;56352;55.750;13.198;2023-07-30T04:14:57;7.68;;;3.58;;
69240;SDS011;56352;55.750;13.198;2023-07-30T04:17:24;5.78;;;3.47;;
69240;SDS011;56352;55.750;13.198;2023-07-30T04:19:50;8.02;;;3.60;;
69240;SDS011;56352;55.750;13.198;2023-07-30T04:22:17;7.95;;;3.50;;
69240;SDS011;56352;55.750;13.198;2023-07-30T04:24:44;7.43;;;3.95;;
69240;SDS011;56352;55.750;13.198;2023-07-30T04:27:10;8.13;;;3.60;;
69240;SDS011;56352;55.750;13.198;2023-07-30T04:29:37;7.65;;;3.65;;
69240;SDS011;56352;55.750;13.198;2023-07-30T04:32:04;7.80;;;3.72;;
69240;SDS011;56352;55.750;13.198;2023-07-30T04:34:31;8.68;;;3.80;;
69240;SDS011;56352;55.750;13.198;2023-07-30T04:36:58;9.15;;;3.90;;
69240;SDS011;56352;55.750;13.198;2023-07-30T04:39:24;6.03;;;3.30;;
69240;SDS011;56352;55.750;13.198;2023-07-30T04:41:51;9.63;;;4.03;;
69240;SDS011;56352;55.750;13.198;2023-07-30T04:44:18;7.50;;;3.85;;
69240;SDS011;56352;55.750;13.198;2023-07-30T04:46:44;8.07;;;3.92;;
69240;SDS011;56352;55.750;13.198;2023-07-30T04:49:11;8.05;;;3.65;;
69240;SDS011;56352;55.750;13.198;2023-07-30T04:51:38;10.05;;;3.80;;
69240;SDS011;56352;55.750;13.198;2023-07-30T04:54:05;7.97;;;3.80;;
69240;SDS011;56352;55.750;13.198;2023-07-30T04:56:32;7.40;;;3.47;;
69240;SDS011;56352;55.750;13.198;2023-07-30T04:58:59;10.35;;;3.60;;
69240;SDS011;56352;55.750;13.198;2023-07-30T05:01:27;10.13;;;3.70;;
69240;SDS011;56352;55.750;13.198;2023-07-30T05:03:53;5.55;;;3.45;;
69240;SDS011;56352;55.750;13.198;2023-07-30T05:06:20;7.85;;;3.97;;
69240;SDS011;56352;55.750;13.198;2023-07-30T05:08:48;7.13;;;3.40;;
69240;SDS011;56352;55.750;13.198;2023-07-30T05:11:15;6.88;;;3.50;;
69240;SDS011;56352;55.750;13.198;2023-07-30T05:13:41;6.55;;;3.45;;
69240;SDS011;56352;55.750;13.198;2023-07-30T05:16:08;7.18;;;3.53;;
69240;SDS011;56352;55.750;13.198;2023-07-30T05:18:35;6.47;;;3.80;;
69240;SDS011;56352;55.750;13.198;2023-07-30T05:21:02;6.43;;;3.53;;
69240;SDS011;56352;55.750;13.198;2023-07-30T05:23:28;8.57;;;4.47;;
69240;SDS011;56352;55.750;13.198;2023-07-30T05:25:55;9.10;;;3.80;;
69240;SDS011;56352;55.750;13.198;2023-07-30T05:28:22;8.70;;;3.47;;
69240;SDS011;56352;55.750;13.198;2023-07-30T05:30:49;5.70;;;3.45;;
69240;SDS011;56352;55.750;13.198;2023-07-30T05:33:15;12.23;;;3.55;;
69240;SDS011;56352;55.750;13.198;2023-07-30T05:35:42;7.45;;;3.25;;
69240;SDS011;56352;55.750;13.198;2023-07-30T05:38:09;7.53;;;3.50;;
69240;SDS011;56352;55.750;13.198;2023-07-30T05:40:36;9.85;;;3.60;;
69240;SDS011;56352;55.750;13.198;2023-07-30T05:45:33;6.70;;;3.10;;
69240;SDS011;56352;55.750;13.198;2023-07-30T05:48:00;7.63;;;3.27;;
69240;SDS011;56352;55.750;13.198;2023-07-30T05:50:26;12.20;;;3.03;;
69240;SDS011;56352;55.750;13.198;2023-07-30T05:52:53;10.18;;;3.20;;
69240;SDS011;56352;55.750;13.198;2023-07-30T05:55:20;6.80;;;2.78;;
69240;SDS011;56352;55.750;13.198;2023-07-30T05:57:47;7.10;;;2.97;;
69240;SDS011;56352;55.750;13.198;2023-07-30T06:00:13;6.68;;;3.10;;
69240;SDS011;56352;55.750;13.198;2023-07-30T06:02:40;8.25;;;2.72;;
69240;SDS011;56352;55.750;13.198;2023-07-30T06:05:07;8.38;;;3.05;;
69240;SDS011;56352;55.750;13.198;2023-07-30T06:07:34;6.38;;;3.40;;
69240;SDS011;56352;55.750;13.198;2023-07-30T06:10:00;8.70;;;3.08;;
69240;SDS011;56352;55.750;13.198;2023-07-30T06:12:27;6.35;;;2.90;;
69240;SDS011;56352;55.750;13.198;2023-07-30T06:14:54;7.00;;;2.72;;
69240;SDS011;56352;55.750;13.198;2023-07-30T06:17:21;5.78;;;2.75;;
69240;SDS011;56352;55.750;13.198;2023-07-30T06:19:47;8.82;;;2.95;;
69240;SDS011;56352;55.750;13.198;2023-07-30T06:22:14;8.52;;;3.30;;
69240;SDS011;56352;55.750;13.198;2023-07-30T06:24:41;9.40;;;3.15;;
69240;SDS011;56352;55.750;13.198;2023-07-30T06:27:07;8.15;;;2.97;;
69240;SDS011;56352;55.750;13.198;2023-07-30T06:29:36;9.00;;;3.13;;
69240;SDS011;56352;55.750;13.198;2023-07-30T06:32:03;9.75;;;2.53;;
69240;SDS011;56352;55.750;13.198;2023-07-30T06:34:30;11.30;;;3.10;;
69240;SDS011;56352;55.750;13.198;2023-07-30T06:36:57;5.82;;;3.00;;
69240;SDS011;56352;55.750;13.198;2023-07-30T06:39:24;8.48;;;3.15;;
69240;SDS011;56352;55.750;13.198;2023-07-30T06:41:51;7.20;;;2.65;;
69240;SDS011;56352;55.750;13.198;2023-07-30T06:44:17;8.27;;;3.00;;
69240;SDS011;56352;55.750;13.198;2023-07-30T06:46:44;8.98;;;3.22;;
69240;SDS011;56352;55.750;13.198;2023-07-30T06:49:11;5.68;;;2.60;;
69240;SDS011;56352;55.750;13.198;2023-07-30T06:51:38;7.35;;;2.75;;
69240;SDS011;56352;55.750;13.198;2023-07-30T06:54:05;8.52;;;2.80;;
69240;SDS011;56352;55.750;13.198;2023-07-30T06:56:32;7.28;;;2.72;;
69240;SDS011;56352;55.750;13.198;2023-07-30T06:58:59;6.72;;;2.85;;
69240;SDS011;56352;55.750;13.198;2023-07-30T07:01:25;8.93;;;2.70;;
69240;SDS011;56352;55.750;13.198;2023-07-30T07:03:52;7.28;;;2.80;;
69240;SDS011;56352;55.750;13.198;2023-07-30T07:06:19;6.80;;;2.47;;
69240;SDS011;56352;55.750;13.198;2023-07-30T07:08:46;8.10;;;2.20;;
69240;SDS011;56352;55.750;13.198;2023-07-30T07:11:12;5.97;;;2.70;;
69240;SDS011;56352;55.750;13.198;2023-07-30T07:13:39;9.75;;;2.90;;
69240;SDS011;56352;55.750;13.198;2023-07-30T07:16:06;5.35;;;2.38;;
69240;SDS011;56352;55.750;13.198;2023-07-30T07:18:32;7.50;;;2.50;;
69240;SDS011;56352;55.750;13.198;2023-07-30T07:20:59;6.85;;;2.58;;
69240;SDS011;56352;55.750;13.198;2023-07-30T07:23:26;3.97;;;2.17;;
69240;SDS011;56352;55.750;13.198;2023-07-30T07:25:52;5.65;;;2.05;;
69240;SDS011;56352;55.750;13.198;2023-07-30T07:28:19;8.13;;;2.70;;
69240;SDS011;56352;55.750;13.198;2023-07-30T07:30:46;7.20;;;2.13;;
69240;SDS011;56352;55.750;13.198;2023-07-30T07:33:15;8.82;;;2.80;;
69240;SDS011;56352;55.750;13.198;2023-07-30T07:35:42;6.40;;;2.53;;
69240;SDS011;56352;55.750;13.198;2023-07-30T07:38:08;7.18;;;2.60;;
69240;SDS011;56352;55.750;13.198;2023-07-30T07:40:36;5.80;;;2.10;;
69240;SDS011;56352;55.750;13.198;2023-07-30T07:43:06;8.13;;;2.40;;
69240;SDS011;56352;55.750;13.198;2023-07-30T07:45:36;4.07;;;2.28;;
69240;SDS011;56352;55.750;13.198;2023-07-30T07:48:02;6.20;;;2.38;;
69240;SDS011;56352;55.750;13.198;2023-07-30T07:50:29;5.88;;;2.67;;
69240;SDS011;56352;55.750;13.198;2023-07-30T07:52:56;3.83;;;2.13;;
69240;SDS011;56352;55.750;13.198;2023-07-30T07:55:23;5.53;;;2.35;;
69240;SDS011;56352;55.750;13.198;2023-07-30T07:57:49;5.20;;;2.40;;
69240;SDS011;56352;55.750;13.198;2023-07-30T08:00:17;8.75;;;2.80;;
69240;SDS011;56352;55.750;13.198;2023-07-30T08:02:43;5.10;;;2.35;;
69240;SDS011;56352;55.750;13.198;2023-07-30T08:05:10;6.70;;;2.25;;
69240;SDS011;56352;55.750;13.198;2023-07-30T08:07:37;5.68;;;2.20;;
69240;SDS011;56352;55.750;13.198;2023-07-30T08:10:04;5.57;;;2.25;;
69240;SDS011;56352;55.750;13.198;2023-07-30T08:12:32;8.40;;;2.45;;
69240;SDS011;56352;55.750;13.198;2023-07-30T08:14:59;6.68;;;2.45;;
69240;SDS011;56352;55.750;13.198;2023-07-30T08:17:25;5.75;;;2.10;;
69240;SDS011;56352;55.750;13.198;2023-07-30T08:19:52;5.45;;;2.28;;
69240;SDS011;56352;55.750;13.198;2023-07-30T08:22:19;4.45;;;1.88;;
69240;SDS011;56352;55.750;13.198;2023-07-30T08:24:45;5.72;;;2.22;;
69240;SDS011;56352;55.750;13.198;2023-07-30T08:27:12;4.13;;;2.00;;
69240;SDS011;56352;55.750;13.198;2023-07-30T08:29:39;4.88;;;1.88;;
69240;SDS011;56352;55.750;13.198;2023-07-30T08:32:06;4.25;;;2.00;;
69240;SDS011;56352;55.750;13.198;2023-07-30T08:34:34;6.65;;;2.13;;
69240;SDS011;56352;55.750;13.198;2023-07-30T08:37:00;7.10;;;2.10;;
69240;SDS011;56352;55.750;13.198;2023-07-30T08:39:27;5.05;;;2.15;;
69240;SDS011;56352;55.750;13.198;2023-07-30T08:41:54;3.90;;;1.80;;
69240;SDS011;56352;55.750;13.198;2023-07-30T08:44:21;5.50;;;2.10;;
69240;SDS011;56352;55.750;13.198;2023-07-30T08:46:47;2.63;;;1.60;;
69240;SDS011;56352;55.750;13.198;2023-07-30T08:49:14;6.07;;;1.58;;
69240;SDS011;56352;55.750;13.198;2023-07-30T08:51:41;5.65;;;1.80;;
69240;SDS011;56352;55.750;13.198;2023-07-30T08:54:09;3.83;;;1.42;;
69240;SDS011;56352;55.750;13.198;2023-07-30T08:56:37;4.75;;;1.90;;
69240;SDS011;56352;55.750;13.198;2023-07-30T08:59:04;6.80;;;2.00;;
69240;SDS011;56352;55.750;13.198;2023-07-30T09:01:36;3.67;;;1.90;;
69240;SDS011;56352;55.750;13.198;2023-07-30T09:04:05;4.28;;;1.90;;
69240;SDS011;56352;55.750;13.198;2023-07-30T09:06:33;4.78;;;2.10;;
69240;SDS011;56352;55.750;13.198;2023-07-30T09:08:59;5.25;;;1.80;;
69240;SDS011;56352;55.750;13.198;2023-07-30T09:11:26;5.25;;;1.80;;
69240;SDS011;56352;55.750;13.198;2023-07-30T09:13:54;4.65;;;2.10;;
69240;SDS011;56352;55.750;13.198;2023-07-30T09:16:24;6.18;;;1.92;;
69240;SDS011;56352;55.750;13.198;2023-07-30T09:18:52;6.57;;;1.75;;
69240;SDS011;56352;55.750;13.198;2023-07-30T09:21:20;6.50;;;1.98;;
69240;SDS011;56352;55.750;13.198;2023-07-30T09:23:56;5.15;;;1.80;;
69240;SDS011;56352;55.750;13.198;2023-07-30T09:26:24;4.37;;;2.17;;
69240;SDS011;56352;55.750;13.198;2023-07-30T09:28:50;7.22;;;2.10;;
69240;SDS011;56352;55.750;13.198;2023-07-30T09:31:17;4.63;;;1.80;;
69240;SDS011;56352;55.750;13.198;2023-07-30T09:33:48;4.57;;;1.90;;
69240;SDS011;56352;55.750;13.198;2023-07-30T09:36:14;5.40;;;2.25;;
69240;SDS011;56352;55.750;13.198;2023-07-30T09:38:42;5.00;;;1.92;;
69240;SDS011;56352;55.750;13.198;2023-07-30T09:41:10;4.65;;;2.00;;
69240;SDS011;56352;55.750;13.198;2023-07-30T09:43:37;3.58;;;1.70;;
69240;SDS011;56352;55.750;13.198;2023-07-30T09:46:06;7.15;;;2.05;;
69240;SDS011;56352;55.750;13.198;2023-07-30T09:48:33;4.38;;;2.20;;
69240;SDS011;56352;55.750;13.198;2023-07-30T09:51:01;6.60;;;1.60;;
69240;SDS011;56352;55.750;13.198;2023-07-30T09:53:30;5.32;;;1.77;;
69240;SDS011;56352;55.750;13.198;2023-07-30T09:56:04;4.93;;;2.10;;
69240;SDS011;56352;55.750;13.198;2023-07-30T09:58:35;8.00;;;1.85;;
69240;SDS011;56352;55.750;13.198;2023-07-30T10:01:04;4.28;;;1.70;;
69240;SDS011;56352;55.750;13.198;2023-07-30T10:03:31;5.72;;;2.00;;
69240;SDS011;56352;55.750;13.198;2023-07-30T10:06:02;4.43;;;1.67;;
69240;SDS011;56352;55.750;13.198;2023-07-30T10:08:32;5.70;;;1.90;;
69240;SDS011;56352;55.750;13.198;2023-07-30T10:11:06;4.75;;;1.90;;
69240;SDS011;56352;55.750;13.198;2023-07-30T10:13:33;3.80;;;1.70;;
69240;SDS011;56352;55.750;13.198;2023-07-30T10:16:01;3.40;;;1.50;;
69240;SDS011;56352;55.750;13.198;2023-07-30T10:18:41;3.83;;;1.40;;
69240;SDS011;56352;55.750;13.198;2023-07-30T10:21:09;5.07;;;2.00;;
69240;SDS011;56352;55.750;13.198;2023-07-30T10:23:46;3.58;;;1.80;;
69240;SDS011;56352;55.750;13.198;2023-07-30T10:26:16;5.05;;;1.95;;
69240;SDS011;56352;55.750;13.198;2023-07-30T10:29:12;4.80;;;1.73;;
69240;SDS011;56352;55.750;13.198;2023-07-30T10:34:20;6.22;;;1.60;;
69240;SDS011;56352;55.750;13.198;2023-07-30T10:36:48;4.68;;;1.80;;
69240;SDS011;56352;55.750;13.198;2023-07-30T10:39:26;4.32;;;1.80;;
69240;SDS011;56352;55.750;13.198;2023-07-30T10:41:57;2.97;;;1.50;;
69240;SDS011;56352;55.750;13.198;2023-07-30T10:44:32;4.25;;;1.70;;
69240;SDS011;56352;55.750;13.198;2023-07-30T10:47:00;4.07;;;1.88;;
69240;SDS011;56352;55.750;13.198;2023-07-30T10:49:28;6.32;;;2.13;;
69240;SDS011;56352;55.750;13.198;2023-07-30T10:51:55;5.25;;;1.52;;
69240;SDS011;56352;55.750;13.198;2023-07-30T10:54:32;4.40;;;1.58;;
69240;SDS011;56352;55.750;13.198;2023-07-30T10:56:59;5.50;;;1.70;;
69240;SDS011;56352;55.750;13.198;2023-07-30T10:59:26;4.25;;;1.63;;
69240;SDS011;56352;55.750;13.198;2023-07-30T11:02:03;4.65;;;1.50;;
69240;SDS011;56352;55.750;13.198;2023-07-30T11:04:33;4.30;;;1.80;;
69240;SDS011;56352;55.750;13.198;2023-07-30T11:07:01;3.78;;;1.50;;
69240;SDS011;56352;55.750;13.198;2023-07-30T11:09:29;2.15;;;1.42;;
69240;SDS011;56352;55.750;13.198;2023-07-30T11:11:56;3.88;;;1.58;;
69240;SDS011;56352;55.750;13.198;2023-07-30T11:14:23;3.83;;;1.98;;
69240;SDS011;56352;55.750;13.198;2023-07-30T11:16:57;3.00;;;1.35;;
69240;SDS011;56352;55.750;13.198;2023-07-30T11:19:25;2.90;;;1.45;;
69240;SDS011;56352;55.750;13.198;2023-07-30T11:21:54;2.78;;;1.45;;
69240;SDS011;56352;55.750;13.198;2023-07-30T11:24:35;3.00;;;1.40;;
69240;SDS011;56352;55.750;13.198;2023-07-30T11:27:03;3.22;;;1.35;;
69240;SDS011;56352;55.750;13.198;2023-07-30T11:29:30;4.25;;;1.58;;
69240;SDS011;56352;55.750;13.198;2023-07-30T11:31:57;3.30;;;1.30;;
69240;SDS011;56352;55.750;13.198;2023-07-30T11:34:26;6.63;;;1.45;;
69240;SDS011;56352;55.750;13.198;2023-07-30T11:36:53;3.80;;;1.48;;
69240;SDS011;56352;55.750;13.198;2023-07-30T11:39:20;3.40;;;1.65;;
69240;SDS011;56352;55.750;13.198;2023-07-30T11:41:48;4.15;;;1.60;;
69240;SDS011;56352;55.750;13.198;2023-07-30T11:44:37;4.22;;;1.52;;
69240;SDS011;56352;55.750;13.198;2023-07-30T11:47:05;3.33;;;1.52;;
69240;SDS011;56352;55.750;13.198;2023-07-30T11:49:33;3.22;;;1.50;;
69240;SDS011;56352;55.750;13.198;2023-07-30T11:52:06;5.25;;;1.70;;
69240;SDS011;56352;55.750;13.198;2023-07-30T11:54:37;3.72;;;1.92;;
69240;SDS011;56352;55.750;13.198;2023-07-30T11:57:04;2.88;;;1.30;;
69240;SDS011;56352;55.750;13.198;2023-07-30T11:59:31;2.58;;;1.27;;
69240;SDS011;56352;55.750;13.198;2023-07-30T12:01:58;3.28;;;1.50;;
69240;SDS011;56352;55.750;13.198;2023-07-30T12:04:25;2.83;;;1.48;;
69240;SDS011;56352;55.750;13.198;2023-07-30T12:06:57;4.72;;;1.40;;
69240;SDS011;56352;55.750;13.198;2023-07-30T12:09:24;3.25;;;1.60;;
69240;SDS011;56352;55.750;13.198;2023-07-30T12:14:25;6.05;;;1.75;;
69240;SDS011;56352;55.750;13.198;2023-07-30T12:17:09;2.72;;;1.50;;
69240;SDS011;56352;55.750;13.198;2023-07-30T12:19:36;5.72;;;2.28;;
69240;SDS011;56352;55.750;13.198;2023-07-30T12:22:03;5.40;;;1.95;;
69240;SDS011;56352;55.750;13.198;2023-07-30T12:24:30;3.67;;;1.90;;
69240;SDS011;56352;55.750;13.198;2023-07-30T12:26:57;4.07;;;1.52;;
69240;SDS011;56352;55.750;13.198;2023-07-30T12:29:24;4.95;;;1.80;;
69240;SDS011;56352;55.750;13.198;2023-07-30T12:31:51;5.00;;;1.70;;
69240;SDS011;56352;55.750;13.198;2023-07-30T12:34:22;5.43;;;1.70;;
69240;SDS011;56352;55.750;13.198;2023-07-30T12:36:49;7.07;;;2.25;;
69240;SDS011;56352;55.750;13.198;2023-07-30T12:39:17;5.03;;;1.98;;
69240;SDS011;56352;55.750;13.198;2023-07-30T12:41:44;4.65;;;1.77;;
69240;SDS011;56352;55.750;13.198;2023-07-30T12:44:10;5.15;;;1.95;;
69240;SDS011;56352;55.750;13.198;2023-07-30T12:46:37;11.23;;;2.58;;
69240;SDS011;56352;55.750;13.198;2023-07-30T12:49:04;6.85;;;1.90;;
69240;SDS011;56352;55.750;13.198;2023-07-30T12:51:31;5.00;;;1.92;;
69240;SDS011;56352;55.750;13.198;2023-07-30T12:53:58;3.10;;;1.30;;
69240;SDS011;56352;55.750;13.198;2023-07-30T12:56:25;3.75;;;1.33;;
69240;SDS011;56352;55.750;13.198;2023-07-30T12:58:52;2.38;;;1.27;;
69240;SDS011;56352;55.750;13.198;2023-07-30T13:01:19;3.63;;;1.30;;
69240;SDS011;56352;55.750;13.198;2023-07-30T13:03:46;2.80;;;1.38;;
69240;SDS011;56352;55.750;13.198;2023-07-30T13:06:13;4.68;;;1.45;;
69240;SDS011;56352;55.750;13.198;2023-07-30T13:08:40;4.53;;;1.38;;
69240;SDS011;56352;55.750;13.198;2023-07-30T13:11:07;3.15;;;1.50;;
69240;SDS011;56352;55.750;13.198;2023-07-30T13:13:34;4.03;;;1.60;;
69240;SDS011;56352;55.750;13.198;2023-07-30T13:16:00;2.38;;;1.20;;
69240;SDS011;56352;55.750;13.198;2023-07-30T13:18:28;3.45;;;1.35;;
69240;SDS011;56352;55.750;13.198;2023-07-30T13:20:55;2.97;;;1.70;;
69240;SDS011;56352;55.750;13.198;2023-07-30T13:23:22;3.22;;;1.38;;
69240;SDS011;56352;55.750;13.198;2023-07-30T13:25:51;3.90;;;1.45;;
69240;SDS011;56352;55.750;13.198;2023-07-30T13:28:18;4.57;;;1.67;;
69240;SDS011;56352;55.750;13.198;2023-07-30T13:30:45;2.85;;;1.80;;
69240;SDS011;56352;55.750;13.198;2023-07-30T13:33:12;2.78;;;1.60;;
69240;SDS011;56352;55.750;13.198;2023-07-30T13:35:39;4.30;;;1.80;;
69240;SDS011;56352;55.750;13.198;2023-07-30T13:38:05;3.63;;;1.90;;
69240;SDS011;56352;55.750;13.198;2023-07-30T13:40:32;4.25;;;1.80;;
69240;SDS011;56352;55.750;13.198;2023-07-30T13:42:59;4.13;;;1.75;;
69240;SDS011;56352;55.750;13.198;2023-07-30T13:45:25;4.82;;;1.73;;
69240;SDS011;56352;55.750;13.198;2023-07-30T13:47:52;3.60;;;1.77;;
69240;SDS011;56352;55.750;13.198;2023-07-30T13:50:19;3.47;;;1.92;;
69240;SDS011;56352;55.750;13.198;2023-07-30T13:52:46;5.53;;;2.05;;
69240;SDS011;56352;55.750;13.198;2023-07-30T13:55:13;5.25;;;1.80;;
69240;SDS011;56352;55.750;13.198;2023-07-30T13:57:40;4.40;;;1.90;;
69240;SDS011;56352;55.750;13.198;2023-07-30T14:00:07;4.13;;;1.95;;
69240;SDS011;56352;55.750;13.198;2023-07-30T14:02:34;5.93;;;2.33;;
69240;SDS011;56352;55.750;13.198;2023-07-30T14:05:01;3.70;;;1.90;;
69240;SDS011;56352;55.750;13.198;2023-07-30T14:07:29;2.90;;;1.67;;
69240;SDS011;56352;55.750;13.198;2023-07-30T14:09:55;7.10;;;2.30;;
69240;SDS011;56352;55.750;13.198;2023-07-30T14:12:22;3.70;;;2.10;;
69240;SDS011;56352;55.750;13.198;2023-07-30T14:14:49;4.28;;;2.15;;
69240;SDS011;56352;55.750;13.198;2023-07-30T14:17:15;4.80;;;1.90;;
69240;SDS011;56352;55.750;13.198;2023-07-30T14:19:42;3.45;;;2.00;;
69240;SDS011;56352;55.750;13.198;2023-07-30T14:22:09;2.78;;;1.50;;
69240;SDS011;56352;55.750;13.198;2023-07-30T14:24:35;3.85;;;1.70;;
69240;SDS011;56352;55.750;13.198;2023-07-30T14:29:30;2.65;;;1.70;;
69240;SDS011;56352;55.750;13.198;2023-07-30T14:31:57;3.55;;;1.77;;
69240;SDS011;56352;55.750;13.198;2023-07-30T14:34:24;3.33;;;1.40;;
69240;SDS011;56352;55.750;13.198;2023-07-30T14:36:51;2.15;;;1.40;;
69240;SDS011;56352;55.750;13.198;2023-07-30T14:39:18;2.08;;;1.30;;
69240;SDS011;56352;55.750;13.198;2023-07-30T14:41:45;2.65;;;1.40;;
69240;SDS011;56352;55.750;13.198;2023-07-30T14:44:12;3.25;;;1.50;;
69240;SDS011;56352;55.750;13.198;2023-07-30T14:46:39;2.30;;;1.20;;